sensor_id;sensor_type;location;lat;lon;timestamp;temperature;humidity
43581;DHT22;29175;51.030;4.606;2023-03-01T00:01:48;1.20;99.60
43581;DHT22;29175;51.030;4.606;2023-03-01T00:04:14;1.30;99.60
43581;DHT22;29175;51.030;4.606;2023-03-01T00:06:40;1.30;99.60
43581;DHT22;29175;51.030;4.606;2023-03-01T00:09:07;1.20;99.70
43581;DHT22;29175;51.030;4.606;2023-03-01T00:11:34;1.30;99.70
43581;DHT22;29175;51.030;4.606;2023-03-01T00:14:01;1.30;99.50
43581;DHT22;29175;51.030;4.606;2023-03-01T00:16:30;1.30;99.50
43581;DHT22;29175;51.030;4.606;2023-03-01T00:18:57;1.30;99.50
43581;DHT22;29175;51.030;4.606;2023-03-01T00:21:23;1.20;99.70
43581;DHT22;29175;51.030;4.606;2023-03-01T00:23:50;1.10;99.80
43581;DHT22;29175;51.030;4.606;2023-03-01T00:26:17;1.10;99.80
43581;DHT22;29175;51.030;4.606;2023-03-01T00:28:44;1.10;99.80
43581;DHT22;29175;51.030;4.606;2023-03-01T00:31:12;1.20;99.70
43581;DHT22;29175;51.030;4.606;2023-03-01T00:33:39;1.30;99.50
43581;DHT22;29175;51.030;4.606;2023-03-01T00:36:05;1.30;99.60
43581;DHT22;29175;51.030;4.606;2023-03-01T00:38:35;1.20;99.60
43581;DHT22;29175;51.030;4.606;2023-03-01T00:41:05;1.10;99.80
43581;DHT22;29175;51.030;4.606;2023-03-01T00:43:31;1.20;99.70
43581;DHT22;29175;51.030;4.606;2023-03-01T00:46:06;1.20;99.60
43581;DHT22;29175;51.030;4.606;2023-03-01T00:48:33;1.30;99.50
43581;DHT22;29175;51.030;4.606;2023-03-01T00:51:10;1.40;99.50
43581;DHT22;29175;51.030;4.606;2023-03-01T00:53:36;1.20;99.70
43581;DHT22;29175;51.030;4.606;2023-03-01T00:56:03;1.10;99.80
43581;DHT22;29175;51.030;4.606;2023-03-01T00:58:30;1.10;99.80
43581;DHT22;29175;51.030;4.606;2023-03-01T01:00:56;1.10;99.80
43581;DHT22;29175;51.030;4.606;2023-03-01T01:03:22;1.20;99.90
43581;DHT22;29175;51.030;4.606;2023-03-01T01:05:48;1.20;99.70
43581;DHT22;29175;51.030;4.606;2023-03-01T01:08:14;0.90;99.90
43581;DHT22;29175;51.030;4.606;2023-03-01T01:10:42;0.90;99.90
43581;DHT22;29175;51.030;4.606;2023-03-01T01:13:08;1.00;99.90
43581;DHT22;29175;51.030;4.606;2023-03-01T01:15:34;1.00;99.90
43581;DHT22;29175;51.030;4.606;2023-03-01T01:18:01;0.90;99.90
43581;DHT22;29175;51.030;4.606;2023-03-01T01:20:27;0.90;99.90
43581;DHT22;29175;51.030;4.606;2023-03-01T01:22:53;0.90;99.90
43581;DHT22;29175;51.030;4.606;2023-03-01T01:25:19;0.80;99.90
43581;DHT22;29175;51.030;4.606;2023-03-01T01:27:45;0.80;99.90
43581;DHT22;29175;51.030;4.606;2023-03-01T01:30:11;0.80;99.90
43581;DHT22;29175;51.030;4.606;2023-03-01T01:32:37;0.80;99.90
43581;DHT22;29175;51.030;4.606;2023-03-01T01:35:03;0.80;99.90
43581;DHT22;29175;51.030;4.606;2023-03-01T01:37:29;0.80;99.90
43581;DHT22;29175;51.030;4.606;2023-03-01T01:40:00;0.60;99.90
43581;DHT22;29175;51.030;4.606;2023-03-01T01:42:30;0.60;99.90
43581;DHT22;29175;51.030;4.606;2023-03-01T01:45:26;0.50;99.90
43581;DHT22;29175;51.030;4.606;2023-03-01T01:47:55;0.60;99.90
43581;DHT22;29175;51.030;4.606;2023-03-01T01:50:23;0.70;99.90
43581;DHT22;29175;51.030;4.606;2023-03-01T01:52:50;0.70;99.90
43581;DHT22;29175;51.030;4.606;2023-03-01T01:55:24;0.60;99.90
43581;DHT22;29175;51.030;4.606;2023-03-01T01:57:56;0.70;99.90
43581;DHT22;29175;51.030;4.606;2023-03-01T02:00:26;0.70;99.90
43581;DHT22;29175;51.030;4.606;2023-03-01T02:03:00;0.70;99.90
43581;DHT22;29175;51.030;4.606;2023-03-01T02:05:42;0.60;99.90
43581;DHT22;29175;51.030;4.606;2023-03-01T02:08:11;0.60;99.90
43581;DHT22;29175;51.030;4.606;2023-03-01T02:10:38;0.60;99.90
43581;DHT22;29175;51.030;4.606;2023-03-01T02:13:05;0.60;99.90
43581;DHT22;29175;51.030;4.606;2023-03-01T02:15:33;0.60;99.90
43581;DHT22;29175;51.030;4.606;2023-03-01T02:18:01;0.70;99.90
43581;DHT22;29175;51.030;4.606;2023-03-01T02:23:27;0.60;99.90
43581;DHT22;29175;51.030;4.606;2023-03-01T02:26:05;0.70;99.90
43581;DHT22;29175;51.030;4.606;2023-03-01T02:28:37;0.60;99.90
43581;DHT22;29175;51.030;4.606;2023-03-01T02:31:09;0.70;99.90
43581;DHT22;29175;51.030;4.606;2023-03-01T02:33:55;0.50;99.90
43581;DHT22;29175;51.030;4.606;2023-03-01T02:36:28;0.60;99.90
43581;DHT22;29175;51.030;4.606;2023-03-01T02:39:02;0.50;99.90
43581;DHT22;29175;51.030;4.606;2023-03-01T02:41:31;0.50;99.90
43581;DHT22;29175;51.030;4.606;2023-03-01T02:43:57;0.40;99.90
43581;DHT22;29175;51.030;4.606;2023-03-01T02:46:25;0.40;99.90
43581;DHT22;29175;51.030;4.606;2023-03-01T02:48:56;0.40;99.90
43581;DHT22;29175;51.030;4.606;2023-03-01T02:54:26;0.40;99.90
43581;DHT22;29175;51.030;4.606;2023-03-01T02:56:54;0.40;99.90
43581;DHT22;29175;51.030;4.606;2023-03-01T02:59:26;0.30;99.90
43581;DHT22;29175;51.030;4.606;2023-03-01T03:01:54;0.50;99.90
43581;DHT22;29175;51.030;4.606;2023-03-01T03:04:20;0.30;99.90
43581;DHT22;29175;51.030;4.606;2023-03-01T03:06:48;0.30;99.90
43581;DHT22;29175;51.030;4.606;2023-03-01T03:09:15;0.10;99.90
43581;DHT22;29175;51.030;4.606;2023-03-01T03:11:41;0.10;99.90
43581;DHT22;29175;51.030;4.606;2023-03-01T03:14:13;0.20;99.90
43581;DHT22;29175;51.030;4.606;2023-03-01T03:16:47;0.10;99.90
43581;DHT22;29175;51.030;4.606;2023-03-01T03:19:14;0.10;99.90
43581;DHT22;29175;51.030;4.606;2023-03-01T03:21:40;0.20;99.90
43581;DHT22;29175;51.030;4.606;2023-03-01T03:24:06;0.20;99.90
43581;DHT22;29175;51.030;4.606;2023-03-01T03:26:32;0.20;99.90
43581;DHT22;29175;51.030;4.606;2023-03-01T03:28:58;0.20;99.90
43581;DHT22;29175;51.030;4.606;2023-03-01T03:31:24;0.20;99.90
43581;DHT22;29175;51.030;4.606;2023-03-01T03:33:53;0.20;99.90
43581;DHT22;29175;51.030;4.606;2023-03-01T03:36:22;0.10;99.90
43581;DHT22;29175;51.030;4.606;2023-03-01T03:38:48;0.00;99.90
43581;DHT22;29175;51.030;4.606;2023-03-01T03:41:14;0.00;99.90
43581;DHT22;29175;51.030;4.606;2023-03-01T03:43:41;-0.20;99.90
43581;DHT22;29175;51.030;4.606;2023-03-01T03:46:09;-0.10;99.90
43581;DHT22;29175;51.030;4.606;2023-03-01T03:48:44;-0.10;99.90
43581;DHT22;29175;51.030;4.606;2023-03-01T03:51:11;0.00;99.90
43581;DHT22;29175;51.030;4.606;2023-03-01T03:53:38;-0.10;99.90
43581;DHT22;29175;51.030;4.606;2023-03-01T03:56:05;-0.20;99.90
43581;DHT22;29175;51.030;4.606;2023-03-01T03:58:31;-0.20;99.90
43581;DHT22;29175;51.030;4.606;2023-03-01T04:00:57;-0.10;99.90
43581;DHT22;29175;51.030;4.606;2023-03-01T04:03:25;-0.40;99.90
43581;DHT22;29175;51.030;4.606;2023-03-01T04:05:52;-0.20;99.90
43581;DHT22;29175;51.030;4.606;2023-03-01T04:08:19;-0.20;99.90
43581;DHT22;29175;51.030;4.606;2023-03-01T04:10:50;-0.20;99.90
43581;DHT22;29175;51.030;4.606;2023-03-01T04:13:21;-0.10;99.90
43581;DHT22;29175;51.030;4.606;2023-03-01T04:15:52;-0.10;99.90
43581;DHT22;29175;51.030;4.606;2023-03-01T04:18:19;-0.10;99.90
43581;DHT22;29175;51.030;4.606;2023-03-01T04:20:46;-0.10;99.90
43581;DHT22;29175;51.030;4.606;2023-03-01T04:23:19;-0.10;99.90
43581;DHT22;29175;51.030;4.606;2023-03-01T04:25:49;-0.10;99.90
43581;DHT22;29175;51.030;4.606;2023-03-01T04:28:53;-0.10;99.90
43581;DHT22;29175;51.030;4.606;2023-03-01T04:31:16;-0.10;99.90
43581;DHT22;29175;51.030;4.606;2023-03-01T04:33:49;-0.30;99.90
43581;DHT22;29175;51.030;4.606;2023-03-01T04:36:17;-0.50;99.90
43581;DHT22;29175;51.030;4.606;2023-03-01T04:38:44;-0.30;99.90
43581;DHT22;29175;51.030;4.606;2023-03-01T04:41:15;-0.30;99.90
43581;DHT22;29175;51.030;4.606;2023-03-01T04:43:41;-0.30;99.90
43581;DHT22;29175;51.030;4.606;2023-03-01T04:46:09;-0.40;99.90
43581;DHT22;29175;51.030;4.606;2023-03-01T04:48:36;-0.40;99.90
43581;DHT22;29175;51.030;4.606;2023-03-01T04:51:03;-0.50;99.90
43581;DHT22;29175;51.030;4.606;2023-03-01T04:53:30;-0.50;99.90
43581;DHT22;29175;51.030;4.606;2023-03-01T04:55:56;-0.40;99.90
43581;DHT22;29175;51.030;4.606;2023-03-01T04:58:23;-0.60;99.90
43581;DHT22;29175;51.030;4.606;2023-03-01T05:00:49;-0.60;99.90
43581;DHT22;29175;51.030;4.606;2023-03-01T05:03:15;-0.70;99.90
43581;DHT22;29175;51.030;4.606;2023-03-01T05:05:44;-0.70;99.90
43581;DHT22;29175;51.030;4.606;2023-03-01T05:08:11;-0.70;99.90
43581;DHT22;29175;51.030;4.606;2023-03-01T05:10:50;-0.70;99.90
43581;DHT22;29175;51.030;4.606;2023-03-01T05:13:18;-0.70;99.90
43581;DHT22;29175;51.030;4.606;2023-03-01T05:16:01;-0.70;99.90
43581;DHT22;29175;51.030;4.606;2023-03-01T05:18:30;-0.70;99.90
43581;DHT22;29175;51.030;4.606;2023-03-01T05:21:08;-0.70;99.90
43581;DHT22;29175;51.030;4.606;2023-03-01T05:23:34;-0.80;99.90
43581;DHT22;29175;51.030;4.606;2023-03-01T05:26:02;-0.70;99.90
43581;DHT22;29175;51.030;4.606;2023-03-01T05:28:29;-0.60;99.90
43581;DHT22;29175;51.030;4.606;2023-03-01T05:30:56;-0.80;99.90
43581;DHT22;29175;51.030;4.606;2023-03-01T05:33:23;-0.80;99.90
43581;DHT22;29175;51.030;4.606;2023-03-01T05:35:50;-0.80;99.90
43581;DHT22;29175;51.030;4.606;2023-03-01T05:38:17;-0.70;99.90
43581;DHT22;29175;51.030;4.606;2023-03-01T05:40:45;-0.70;99.90
43581;DHT22;29175;51.030;4.606;2023-03-01T05:43:13;-0.70;99.90
43581;DHT22;29175;51.030;4.606;2023-03-01T05:45:40;-0.70;99.90
43581;DHT22;29175;51.030;4.606;2023-03-01T05:48:07;-0.70;99.90
43581;DHT22;29175;51.030;4.606;2023-03-01T05:50:43;-0.70;99.90
43581;DHT22;29175;51.030;4.606;2023-03-01T05:53:11;-0.80;99.90
43581;DHT22;29175;51.030;4.606;2023-03-01T05:55:37;-0.80;99.90
43581;DHT22;29175;51.030;4.606;2023-03-01T05:58:07;-0.80;99.90
43581;DHT22;29175;51.030;4.606;2023-03-01T06:00:35;-0.80;99.90
43581;DHT22;29175;51.030;4.606;2023-03-01T06:03:01;-0.70;99.90
43581;DHT22;29175;51.030;4.606;2023-03-01T06:05:28;-0.80;99.90
43581;DHT22;29175;51.030;4.606;2023-03-01T06:07:54;-0.90;99.90
43581;DHT22;29175;51.030;4.606;2023-03-01T06:10:21;-0.90;99.90
43581;DHT22;29175;51.030;4.606;2023-03-01T06:12:48;-0.90;99.90
43581;DHT22;29175;51.030;4.606;2023-03-01T06:15:15;-0.90;99.90
43581;DHT22;29175;51.030;4.606;2023-03-01T06:17:43;-0.90;99.90
43581;DHT22;29175;51.030;4.606;2023-03-01T06:20:12;-0.90;99.90
43581;DHT22;29175;51.030;4.606;2023-03-01T06:22:39;-0.90;99.90
43581;DHT22;29175;51.030;4.606;2023-03-01T06:25:05;-0.90;99.90
43581;DHT22;29175;51.030;4.606;2023-03-01T06:27:32;-0.90;99.90
43581;DHT22;29175;51.030;4.606;2023-03-01T06:29:57;-0.90;99.90
43581;DHT22;29175;51.030;4.606;2023-03-01T06:32:23;-0.90;99.90
43581;DHT22;29175;51.030;4.606;2023-03-01T06:34:50;-1.00;99.90
43581;DHT22;29175;51.030;4.606;2023-03-01T06:37:16;-1.00;99.90
43581;DHT22;29175;51.030;4.606;2023-03-01T06:39:42;-1.00;99.90
43581;DHT22;29175;51.030;4.606;2023-03-01T06:42:08;-0.90;99.90
43581;DHT22;29175;51.030;4.606;2023-03-01T06:44:36;-0.80;99.90
43581;DHT22;29175;51.030;4.606;2023-03-01T06:47:03;-0.90;99.90
43581;DHT22;29175;51.030;4.606;2023-03-01T06:49:29;-0.90;99.90
43581;DHT22;29175;51.030;4.606;2023-03-01T06:51:56;-0.90;99.90
43581;DHT22;29175;51.030;4.606;2023-03-01T06:54:22;-1.00;99.90
43581;DHT22;29175;51.030;4.606;2023-03-01T06:56:49;-0.70;99.90
43581;DHT22;29175;51.030;4.606;2023-03-01T06:59:16;-0.70;99.90
43581;DHT22;29175;51.030;4.606;2023-03-01T07:01:42;-0.70;99.90
43581;DHT22;29175;51.030;4.606;2023-03-01T07:04:09;-0.90;99.90
43581;DHT22;29175;51.030;4.606;2023-03-01T07:06:35;-0.80;99.90
43581;DHT22;29175;51.030;4.606;2023-03-01T07:09:01;-0.80;99.90
43581;DHT22;29175;51.030;4.606;2023-03-01T07:11:27;-0.70;99.90
43581;DHT22;29175;51.030;4.606;2023-03-01T07:13:53;-0.70;99.90
43581;DHT22;29175;51.030;4.606;2023-03-01T07:16:20;-0.60;99.90
43581;DHT22;29175;51.030;4.606;2023-03-01T07:18:46;-0.50;99.90
43581;DHT22;29175;51.030;4.606;2023-03-01T07:21:14;-0.40;99.90
43581;DHT22;29175;51.030;4.606;2023-03-01T07:23:40;-0.20;99.90
43581;DHT22;29175;51.030;4.606;2023-03-01T07:26:07;-0.10;99.90
43581;DHT22;29175;51.030;4.606;2023-03-01T07:28:33;0.10;99.90
43581;DHT22;29175;51.030;4.606;2023-03-01T07:31:05;0.30;99.90
43581;DHT22;29175;51.030;4.606;2023-03-01T07:33:32;0.50;99.90
43581;DHT22;29175;51.030;4.606;2023-03-01T07:36:01;0.70;99.90
43581;DHT22;29175;51.030;4.606;2023-03-01T07:38:28;0.90;99.90
43581;DHT22;29175;51.030;4.606;2023-03-01T07:40:58;1.00;99.90
43581;DHT22;29175;51.030;4.606;2023-03-01T07:43:24;1.10;99.90
43581;DHT22;29175;51.030;4.606;2023-03-01T07:45:50;1.30;99.90
43581;DHT22;29175;51.030;4.606;2023-03-01T07:48:17;1.20;99.90
43581;DHT22;29175;51.030;4.606;2023-03-01T07:50:43;1.20;99.90
43581;DHT22;29175;51.030;4.606;2023-03-01T07:53:09;1.00;99.90
43581;DHT22;29175;51.030;4.606;2023-03-01T07:55:36;1.10;99.90
43581;DHT22;29175;51.030;4.606;2023-03-01T07:58:02;1.50;99.90
43581;DHT22;29175;51.030;4.606;2023-03-01T08:00:28;1.50;99.90
43581;DHT22;29175;51.030;4.606;2023-03-01T08:02:54;1.30;99.90
43581;DHT22;29175;51.030;4.606;2023-03-01T08:05:20;1.50;99.90
43581;DHT22;29175;51.030;4.606;2023-03-01T08:07:47;1.80;99.90
43581;DHT22;29175;51.030;4.606;2023-03-01T08:10:13;2.30;99.90
43581;DHT22;29175;51.030;4.606;2023-03-01T08:12:39;2.60;99.90
43581;DHT22;29175;51.030;4.606;2023-03-01T08:15:06;2.90;99.90
43581;DHT22;29175;51.030;4.606;2023-03-01T08:17:32;2.80;99.90
43581;DHT22;29175;51.030;4.606;2023-03-01T08:19:58;3.00;99.90
43581;DHT22;29175;51.030;4.606;2023-03-01T08:22:23;3.20;99.80
43581;DHT22;29175;51.030;4.606;2023-03-01T08:24:50;3.60;99.50
43581;DHT22;29175;51.030;4.606;2023-03-01T08:27:16;3.80;98.90
43581;DHT22;29175;51.030;4.606;2023-03-01T08:29:43;4.50;98.90
43581;DHT22;29175;51.030;4.606;2023-03-01T08:32:09;5.60;98.40
43581;DHT22;29175;51.030;4.606;2023-03-01T08:34:34;6.60;96.20
43581;DHT22;29175;51.030;4.606;2023-03-01T08:37:01;7.20;94.90
43581;DHT22;29175;51.030;4.606;2023-03-01T08:39:27;7.90;94.50
43581;DHT22;29175;51.030;4.606;2023-03-01T08:41:53;8.70;93.20
43581;DHT22;29175;51.030;4.606;2023-03-01T08:44:19;10.00;92.60
43581;DHT22;29175;51.030;4.606;2023-03-01T08:46:46;10.30;91.20
43581;DHT22;29175;51.030;4.606;2023-03-01T08:49:19;11.20;91.50
43581;DHT22;29175;51.030;4.606;2023-03-01T08:51:46;11.60;88.90
43581;DHT22;29175;51.030;4.606;2023-03-01T08:54:15;11.60;88.70
43581;DHT22;29175;51.030;4.606;2023-03-01T08:56:41;11.70;86.40
43581;DHT22;29175;51.030;4.606;2023-03-01T08:59:07;11.70;87.50
43581;DHT22;29175;51.030;4.606;2023-03-01T09:01:33;11.20;87.50
43581;DHT22;29175;51.030;4.606;2023-03-01T09:03:59;10.80;88.70
43581;DHT22;29175;51.030;4.606;2023-03-01T09:06:25;10.10;89.20
43581;DHT22;29175;51.030;4.606;2023-03-01T09:08:51;9.50;90.70
43581;DHT22;29175;51.030;4.606;2023-03-01T09:11:19;9.70;90.70
43581;DHT22;29175;51.030;4.606;2023-03-01T09:13:46;10.50;90.60
43581;DHT22;29175;51.030;4.606;2023-03-01T09:16:14;11.60;89.20
43581;DHT22;29175;51.030;4.606;2023-03-01T09:18:40;12.30;85.80
43581;DHT22;29175;51.030;4.606;2023-03-01T09:21:09;11.40;86.50
43581;DHT22;29175;51.030;4.606;2023-03-01T09:23:46;11.60;87.50
43581;DHT22;29175;51.030;4.606;2023-03-01T09:26:14;11.00;86.20
43581;DHT22;29175;51.030;4.606;2023-03-01T09:28:42;10.10;87.90
43581;DHT22;29175;51.030;4.606;2023-03-01T09:31:08;9.90;90.00
43581;DHT22;29175;51.030;4.606;2023-03-01T09:33:34;9.40;90.90
43581;DHT22;29175;51.030;4.606;2023-03-01T09:36:05;8.90;90.80
43581;DHT22;29175;51.030;4.606;2023-03-01T09:38:32;9.20;90.90
43581;DHT22;29175;51.030;4.606;2023-03-01T09:41:01;9.70;90.60
43581;DHT22;29175;51.030;4.606;2023-03-01T09:43:46;10.60;87.30
43581;DHT22;29175;51.030;4.606;2023-03-01T09:46:14;11.40;87.70
43581;DHT22;29175;51.030;4.606;2023-03-01T09:48:48;12.30;86.00
43581;DHT22;29175;51.030;4.606;2023-03-01T09:51:26;11.60;84.90
43581;DHT22;29175;51.030;4.606;2023-03-01T09:53:53;10.20;86.50
43581;DHT22;29175;51.030;4.606;2023-03-01T09:56:28;9.40;90.20
43581;DHT22;29175;51.030;4.606;2023-03-01T10:04:27;11.20;86.10
43581;DHT22;29175;51.030;4.606;2023-03-01T10:09:39;10.60;85.80
43581;DHT22;29175;51.030;4.606;2023-03-01T10:12:10;10.50;86.70
43581;DHT22;29175;51.030;4.606;2023-03-01T10:19:44;10.30;86.40
43581;DHT22;29175;51.030;4.606;2023-03-01T10:22:17;10.00;86.90
43581;DHT22;29175;51.030;4.606;2023-03-01T10:24:47;10.60;88.90
43581;DHT22;29175;51.030;4.606;2023-03-01T10:27:27;11.60;85.70
43581;DHT22;29175;51.030;4.606;2023-03-01T10:30:18;11.70;85.60
43581;DHT22;29175;51.030;4.606;2023-03-01T10:32:46;11.20;86.00
43581;DHT22;29175;51.030;4.606;2023-03-01T10:35:26;11.20;85.40
43581;DHT22;29175;51.030;4.606;2023-03-01T10:38:03;12.10;85.40
43581;DHT22;29175;51.030;4.606;2023-03-01T10:40:31;11.80;85.90
43581;DHT22;29175;51.030;4.606;2023-03-01T10:42:58;11.40;84.40
43581;DHT22;29175;51.030;4.606;2023-03-01T10:45:39;11.10;85.00
43581;DHT22;29175;51.030;4.606;2023-03-01T10:50:46;10.90;85.00
43581;DHT22;29175;51.030;4.606;2023-03-01T10:56:04;11.90;85.30
43581;DHT22;29175;51.030;4.606;2023-03-01T10:58:31;12.40;83.60
43581;DHT22;29175;51.030;4.606;2023-03-01T11:01:04;12.90;82.50
43581;DHT22;29175;51.030;4.606;2023-03-01T11:03:38;11.20;82.80
43581;DHT22;29175;51.030;4.606;2023-03-01T11:08:45;12.60;82.30
43581;DHT22;29175;51.030;4.606;2023-03-01T11:11:25;12.30;82.30
43581;DHT22;29175;51.030;4.606;2023-03-01T11:14:16;12.20;81.70
43581;DHT22;29175;51.030;4.606;2023-03-01T11:16:44;12.20;82.50
43581;DHT22;29175;51.030;4.606;2023-03-01T11:24:30;13.30;80.50
43581;DHT22;29175;51.030;4.606;2023-03-01T11:27:02;13.80;77.30
43581;DHT22;29175;51.030;4.606;2023-03-01T11:29:58;14.80;77.90
43581;DHT22;29175;51.030;4.606;2023-03-01T11:32:27;15.50;75.60
43581;DHT22;29175;51.030;4.606;2023-03-01T11:35:03;14.90;76.70
43581;DHT22;29175;51.030;4.606;2023-03-01T11:37:35;15.30;76.50
43581;DHT22;29175;51.030;4.606;2023-03-01T11:40:47;14.60;76.10
43581;DHT22;29175;51.030;4.606;2023-03-01T11:43:18;14.00;77.60
43581;DHT22;29175;51.030;4.606;2023-03-01T11:49:02;12.90;78.40
43581;DHT22;29175;51.030;4.606;2023-03-01T11:57:09;11.30;81.50
43581;DHT22;29175;51.030;4.606;2023-03-01T12:00:02;11.10;85.10
43581;DHT22;29175;51.030;4.606;2023-03-01T12:10:54;10.00;85.60
43581;DHT22;29175;51.030;4.606;2023-03-01T12:18:48;12.50;80.60
43581;DHT22;29175;51.030;4.606;2023-03-01T12:35:05;11.50;80.90
43581;DHT22;29175;51.030;4.606;2023-03-01T12:47:12;9.50;85.20
43581;DHT22;29175;51.030;4.606;2023-03-01T12:49:48;9.10;86.90
43581;DHT22;29175;51.030;4.606;2023-03-01T12:54:49;8.60;87.60
43581;DHT22;29175;51.030;4.606;2023-03-01T12:57:23;8.70;89.30
43581;DHT22;29175;51.030;4.606;2023-03-01T13:00:02;8.60;89.80
43581;DHT22;29175;51.030;4.606;2023-03-01T13:08:20;8.20;89.60
43581;DHT22;29175;51.030;4.606;2023-03-01T13:10:52;8.30;90.30
43581;DHT22;29175;51.030;4.606;2023-03-01T13:13:22;8.40;89.50
43581;DHT22;29175;51.030;4.606;2023-03-01T13:15:49;8.30;88.00
43581;DHT22;29175;51.030;4.606;2023-03-01T13:23:25;8.00;90.30
43581;DHT22;29175;51.030;4.606;2023-03-01T13:26:16;8.00;90.40
43581;DHT22;29175;51.030;4.606;2023-03-01T13:34:01;7.90;90.60
43581;DHT22;29175;51.030;4.606;2023-03-01T13:39:04;8.30;91.00
43581;DHT22;29175;51.030;4.606;2023-03-01T13:44:32;8.20;90.40
43581;DHT22;29175;51.030;4.606;2023-03-01T13:49:59;8.40;90.50
43581;DHT22;29175;51.030;4.606;2023-03-01T13:52:35;8.30;89.70
43581;DHT22;29175;51.030;4.606;2023-03-01T13:55:02;8.10;90.40
43581;DHT22;29175;51.030;4.606;2023-03-01T13:57:38;8.10;90.60
43581;DHT22;29175;51.030;4.606;2023-03-01T14:00:24;8.20;90.60
43581;DHT22;29175;51.030;4.606;2023-03-01T14:03:09;8.00;90.50
43581;DHT22;29175;51.030;4.606;2023-03-01T14:05:35;7.80;90.60
43581;DHT22;29175;51.030;4.606;2023-03-01T14:08:03;7.90;91.00
43581;DHT22;29175;51.030;4.606;2023-03-01T14:10:39;8.20;90.50
43581;DHT22;29175;51.030;4.606;2023-03-01T14:21:45;8.20;90.60
43581;DHT22;29175;51.030;4.606;2023-03-01T14:24:21;8.40;90.70
43581;DHT22;29175;51.030;4.606;2023-03-01T14:26:49;8.40;90.30
43581;DHT22;29175;51.030;4.606;2023-03-01T14:29:37;8.40;90.00
43581;DHT22;29175;51.030;4.606;2023-03-01T14:32:18;8.20;90.50
43581;DHT22;29175;51.030;4.606;2023-03-01T14:34:47;8.20;89.70
43581;DHT22;29175;51.030;4.606;2023-03-01T14:37:20;8.20;90.30
43581;DHT22;29175;51.030;4.606;2023-03-01T14:39:47;7.70;90.10
43581;DHT22;29175;51.030;4.606;2023-03-01T14:42:13;7.60;90.00
43581;DHT22;29175;51.030;4.606;2023-03-01T14:44:43;7.60;90.90
43581;DHT22;29175;51.030;4.606;2023-03-01T14:47:14;7.70;90.70
43581;DHT22;29175;51.030;4.606;2023-03-01T14:49:42;7.90;90.30
43581;DHT22;29175;51.030;4.606;2023-03-01T14:52:20;8.00;90.80
43581;DHT22;29175;51.030;4.606;2023-03-01T14:54:49;8.20;90.70
43581;DHT22;29175;51.030;4.606;2023-03-01T14:57:24;8.00;90.40
43581;DHT22;29175;51.030;4.606;2023-03-01T14:59:52;7.90;90.50
43581;DHT22;29175;51.030;4.606;2023-03-01T15:02:22;7.90;91.00
43581;DHT22;29175;51.030;4.606;2023-03-01T15:04:55;8.10;91.10
43581;DHT22;29175;51.030;4.606;2023-03-01T15:07:33;8.10;90.50
43581;DHT22;29175;51.030;4.606;2023-03-01T15:10:00;8.00;91.10
43581;DHT22;29175;51.030;4.606;2023-03-01T15:14:56;7.90;91.30
43581;DHT22;29175;51.030;4.606;2023-03-01T15:19:57;7.90;91.30
43581;DHT22;29175;51.030;4.606;2023-03-01T15:22:25;7.90;91.10
43581;DHT22;29175;51.030;4.606;2023-03-01T15:24:52;7.90;91.00
43581;DHT22;29175;51.030;4.606;2023-03-01T15:27:24;8.10;90.50
43581;DHT22;29175;51.030;4.606;2023-03-01T15:29:55;7.80;90.70
43581;DHT22;29175;51.030;4.606;2023-03-01T15:32:35;7.70;91.00
43581;DHT22;29175;51.030;4.606;2023-03-01T15:38:31;8.00;90.10
43581;DHT22;29175;51.030;4.606;2023-03-01T15:40:59;7.70;90.60
43581;DHT22;29175;51.030;4.606;2023-03-01T15:43:44;7.70;90.50
43581;DHT22;29175;51.030;4.606;2023-03-01T15:46:17;7.70;90.20
43581;DHT22;29175;51.030;4.606;2023-03-01T15:48:55;7.70;90.50
43581;DHT22;29175;51.030;4.606;2023-03-01T15:51:37;7.60;91.00
43581;DHT22;29175;51.030;4.606;2023-03-01T15:54:19;7.50;90.60
43581;DHT22;29175;51.030;4.606;2023-03-01T15:56:46;7.60;90.90
43581;DHT22;29175;51.030;4.606;2023-03-01T15:59:12;7.60;91.20
43581;DHT22;29175;51.030;4.606;2023-03-01T16:01:41;7.60;90.90
43581;DHT22;29175;51.030;4.606;2023-03-01T16:04:10;7.70;91.10
43581;DHT22;29175;51.030;4.606;2023-03-01T16:06:39;7.60;91.30
43581;DHT22;29175;51.030;4.606;2023-03-01T16:09:05;7.60;91.10
43581;DHT22;29175;51.030;4.606;2023-03-01T16:11:31;7.70;91.10
43581;DHT22;29175;51.030;4.606;2023-03-01T16:13:59;7.60;91.40
43581;DHT22;29175;51.030;4.606;2023-03-01T16:16:25;7.70;90.90
43581;DHT22;29175;51.030;4.606;2023-03-01T16:18:50;7.50;91.10
43581;DHT22;29175;51.030;4.606;2023-03-01T16:21:23;7.40;91.00
43581;DHT22;29175;51.030;4.606;2023-03-01T16:23:50;7.40;91.30
43581;DHT22;29175;51.030;4.606;2023-03-01T16:26:16;7.30;91.60
43581;DHT22;29175;51.030;4.606;2023-03-01T16:28:44;7.30;91.70
43581;DHT22;29175;51.030;4.606;2023-03-01T16:31:10;7.70;91.40
43581;DHT22;29175;51.030;4.606;2023-03-01T16:33:37;7.60;91.10
43581;DHT22;29175;51.030;4.606;2023-03-01T16:36:08;7.30;91.40
43581;DHT22;29175;51.030;4.606;2023-03-01T16:38:34;7.20;91.60
43581;DHT22;29175;51.030;4.606;2023-03-01T16:41:00;7.30;91.80
43581;DHT22;29175;51.030;4.606;2023-03-01T16:43:26;7.50;91.70
43581;DHT22;29175;51.030;4.606;2023-03-01T16:45:53;7.30;92.00
43581;DHT22;29175;51.030;4.606;2023-03-01T16:48:18;7.20;91.70
43581;DHT22;29175;51.030;4.606;2023-03-01T16:50:44;7.40;91.50
43581;DHT22;29175;51.030;4.606;2023-03-01T16:53:10;7.20;91.50
43581;DHT22;29175;51.030;4.606;2023-03-01T16:55:36;7.00;91.80
43581;DHT22;29175;51.030;4.606;2023-03-01T16:58:03;6.90;92.00
43581;DHT22;29175;51.030;4.606;2023-03-01T17:00:29;7.00;91.80
43581;DHT22;29175;51.030;4.606;2023-03-01T17:02:55;7.00;91.60
43581;DHT22;29175;51.030;4.606;2023-03-01T17:05:21;6.80;92.00
43581;DHT22;29175;51.030;4.606;2023-03-01T17:07:49;6.60;92.40
43581;DHT22;29175;51.030;4.606;2023-03-01T17:10:15;6.60;92.50
43581;DHT22;29175;51.030;4.606;2023-03-01T17:12:40;6.70;92.60
43581;DHT22;29175;51.030;4.606;2023-03-01T17:15:06;6.80;92.60
43581;DHT22;29175;51.030;4.606;2023-03-01T17:17:32;6.80;92.40
43581;DHT22;29175;51.030;4.606;2023-03-01T17:20:00;6.70;92.60
43581;DHT22;29175;51.030;4.606;2023-03-01T17:22:26;6.90;92.40
43581;DHT22;29175;51.030;4.606;2023-03-01T17:24:51;6.80;92.40
43581;DHT22;29175;51.030;4.606;2023-03-01T17:27:17;6.50;92.70
43581;DHT22;29175;51.030;4.606;2023-03-01T17:29:43;6.40;92.90
43581;DHT22;29175;51.030;4.606;2023-03-01T17:32:10;6.50;93.00
43581;DHT22;29175;51.030;4.606;2023-03-01T17:34:36;6.40;93.00
43581;DHT22;29175;51.030;4.606;2023-03-01T17:37:02;6.40;93.40
43581;DHT22;29175;51.030;4.606;2023-03-01T17:39:28;6.30;93.40
43581;DHT22;29175;51.030;4.606;2023-03-01T17:42:01;6.30;93.20
43581;DHT22;29175;51.030;4.606;2023-03-01T17:44:27;6.30;93.30
43581;DHT22;29175;51.030;4.606;2023-03-01T17:46:53;6.20;93.40
43581;DHT22;29175;51.030;4.606;2023-03-01T17:49:19;6.30;93.20
43581;DHT22;29175;51.030;4.606;2023-03-01T17:51:45;6.20;93.20
43581;DHT22;29175;51.030;4.606;2023-03-01T17:54:11;6.20;93.40
43581;DHT22;29175;51.030;4.606;2023-03-01T17:56:37;6.10;93.40